Time;durP1;ratioP1;P1;durP2;ratioP2;P2;SDS_P1;SDS_P2;PMS_P1;PMS_P2;Temp;Humidity;BMP_temperature;BMP_pressure;BME280_temperature;BME280_humidity;BME280_pressure;Samples;Min_cycle;Max_cycle;Signal;HPM_P1;HPM_P2
2021/08/04 00:01:10;;;;;;;;;7.00;6.75;;;;;19.06;100.00;101109.00;5121240;27;45292;-73
2021/08/04 00:03:35;;;;;;;;;8.50;7.25;;;;;19.06;100.00;101114.28;5121276;27;45324;-71
2021/08/04 00:06:00;;;;;;;;;7.75;7.00;;;;;19.00;100.00;101111.03;5121516;27;45253;-72
2021/08/04 00:08:26;;;;;;;;;8.00;7.00;;;;;19.02;100.00;101114.50;5121451;27;45412;-72
2021/08/04 00:10:51;;;;;;;;;8.00;7.00;;;;;19.00;100.00;101116.31;5121078;27;47331;-72
2021/08/04 00:13:17;;;;;;;;;10.00;8.00;;;;;18.96;100.00;101105.00;5121142;27;45233;-72
2021/08/04 00:15:42;;;;;;;;;7.75;6.75;;;;;18.93;100.00;101107.78;5121273;27;45465;-71
2021/08/04 00:18:08;;;;;;;;;7.50;6.75;;;;;18.90;100.00;101115.88;5121708;27;45246;-70
2021/08/04 00:20:34;;;;;;;;;8.75;7.75;;;;;18.86;100.00;101114.28;5120980;27;47257;-71
2021/08/04 00:23:00;;;;;;;;;8.50;7.75;;;;;18.86;100.00;101119.59;5120998;27;45447;-70
2021/08/04 00:25:26;;;;;;;;;8.50;7.50;;;;;18.86;100.00;101122.22;5121161;27;45365;-70
2021/08/04 00:31:13;;;;;;;;;9.25;7.00;;;;;18.80;100.00;101112.78;5120586;27;45258;-71
2021/08/04 00:33:38;;;;;;;;;10.25;9.50;;;;;18.80;100.00;101122.50;5121226;27;45417;-72
2021/08/04 00:36:04;;;;;;;;;9.00;8.25;;;;;18.75;100.00;101112.06;5121157;27;45217;-71
2021/08/04 00:38:29;;;;;;;;;11.25;8.50;;;;;18.77;100.00;101112.88;5121356;27;45448;-71
2021/08/04 00:40:55;;;;;;;;;7.00;7.00;;;;;18.74;100.00;101102.41;5120658;27;47014;-71
2021/08/04 00:43:20;;;;;;;;;9.00;7.00;;;;;18.72;100.00;101104.28;5120948;27;45363;-71
2021/08/04 00:45:46;;;;;;;;;8.25;6.75;;;;;18.76;100.00;101107.66;5120756;27;45352;-72
2021/08/04 00:48:11;;;;;;;;;9.00;7.75;;;;;18.74;100.00;101110.34;5120890;27;45454;-72
2021/08/04 00:50:37;;;;;;;;;8.00;7.00;;;;;18.72;100.00;101104.28;5120512;27;46083;-72
2021/08/04 00:53:26;;;;;;;;;11.50;10.00;;;;;18.74;100.00;101105.06;5120559;27;45354;-72
2021/08/04 01:02:23;;;;;;;;;8.00;7.25;;;;;18.64;100.00;101090.53;5120372;27;45878;-72
2021/08/04 01:04:57;;;;;;;;;8.50;7.50;;;;;18.65;100.00;101090.47;5102281;27;45627;-71
2021/08/04 01:07:31;;;;;;;;;10.25;8.50;;;;;18.63;100.00;101094.97;5120804;27;45248;-72
2021/08/04 01:10:09;;;;;;;;;7.50;7.25;;;;;18.61;100.00;101093.28;5120628;27;45309;-72
2021/08/04 01:12:42;;;;;;;;;9.00;8.00;;;;;18.58;100.00;101094.25;5120369;27;46230;-72
2021/08/04 01:15:08;;;;;;;;;9.25;9.25;;;;;18.56;100.00;101092.59;5120170;27;45604;-72
2021/08/04 01:17:38;;;;;;;;;9.75;8.50;;;;;18.52;100.00;101088.34;5120642;27;45552;-71
2021/08/04 01:20:12;;;;;;;;;8.25;8.25;;;;;18.49;100.00;101091.13;5120428;27;45424;-72
2021/08/04 01:23:09;;;;;;;;;13.00;9.00;;;;;18.48;100.00;101090.25;5119696;27;46738;-71
2021/08/04 01:25:50;;;;;;;;;11.25;10.00;;;;;18.32;100.00;101065.38;5120408;27;45297;-71
2021/08/04 01:28:27;;;;;;;;;7.25;7.25;;;;;18.47;100.00;101091.19;5120188;27;45366;-71
2021/08/04 01:30:56;;;;;;;;;11.50;10.25;;;;;18.46;100.00;101094.75;5120526;27;45366;-72
2021/08/04 01:33:22;;;;;;;;;7.75;7.50;;;;;18.44;100.00;101093.97;5119763;27;47255;-71
2021/08/04 01:35:51;;;;;;;;;8.00;8.00;;;;;18.34;100.00;101063.56;5120230;27;45353;-72
2021/08/04 01:38:18;;;;;;;;;10.75;8.00;;;;;18.41;100.00;101085.31;5101896;27;45346;-72
2021/08/04 01:40:48;;;;;;;;;8.75;7.00;;;;;18.40;100.00;101080.94;5120430;27;45353;-73
2021/08/04 01:43:15;;;;;;;;;8.00;8.00;;;;;18.32;100.00;101060.09;5118717;27;47647;-72
2021/08/04 01:45:42;;;;;;;;;10.50;8.75;;;;;18.32;100.00;101070.66;5119737;27;45651;-72
2021/08/04 01:48:08;;;;;;;;;8.00;8.00;;;;;18.29;100.00;101071.66;5120154;27;45352;-72
2021/08/04 01:50:35;;;;;;;;;9.25;8.50;;;;;18.32;100.00;101079.44;5119889;27;45375;-72
2021/08/04 01:53:02;;;;;;;;;7.75;7.75;;;;;18.29;100.00;101074.28;5119887;27;46417;-72
2021/08/04 01:55:27;;;;;;;;;11.00;11.00;;;;;18.29;100.00;101071.66;5119792;27;45350;-72
2021/08/04 01:57:53;;;;;;;;;9.75;9.00;;;;;18.35;100.00;101079.34;5119585;27;45218;-71
2021/08/04 02:00:18;;;;;;;;;11.50;10.75;;;;;18.33;100.00;101075.91;5119840;27;45255;-72
2021/08/04 02:02:44;;;;;;;;;9.25;8.75;;;;;18.28;100.00;101064.63;5119640;27;45447;-72
2021/08/04 02:05:10;;;;;;;;;12.75;12.00;;;;;18.30;100.00;101072.50;5119687;27;45460;-72
2021/08/04 02:07:47;;;;;;;;;10.00;10.00;;;;;18.29;100.00;101066.34;5119558;27;45339;-72
2021/08/04 02:10:21;;;;;;;;;11.75;9.50;;;;;18.27;100.00;101070.84;5119955;27;45520;-72
2021/08/04 02:12:51;;;;;;;;;11.00;9.75;;;;;18.21;100.00;101060.53;5119482;27;45651;-72
2021/08/04 02:15:20;;;;;;;;;9.50;8.50;;;;;18.19;100.00;101058.88;5119580;27;45277;-72
2021/08/04 02:17:56;;;;;;;;;11.25;10.00;;;;;18.12;100.00;101057.41;5119302;27;45298;-73
2021/08/04 02:20:27;;;;;;;;;9.75;8.75;;;;;18.15;100.00;101068.72;5119500;27;45284;-72
2021/08/04 02:23:01;;;;;;;;;11.75;10.25;;;;;18.14;100.00;101068.78;5119048;27;46071;-73
2021/08/04 02:25:34;;;;;;;;;11.25;10.00;;;;;18.08;100.00;101059.28;5119042;27;45612;-73
2021/08/04 02:28:02;;;;;;;;;12.00;10.00;;;;;17.98;100.00;101037.69;5119210;27;45269;-73
2021/08/04 02:30:30;;;;;;;;;10.00;9.50;;;;;18.01;100.00;101044.63;5119380;27;45236;-73
2021/08/04 02:32:55;;;;;;;;;11.75;10.25;;;;;17.98;100.00;101048.25;5118941;27;46411;-73
2021/08/04 02:35:22;;;;;;;;;12.75;10.00;;;;;18.01;100.00;101061.34;5118880;27;45409;-73
2021/08/04 02:37:48;;;;;;;;;12.50;10.00;;;;;17.98;100.00;101037.69;5118961;27;45407;-73
2021/08/04 02:40:14;;;;;;;;;11.75;9.75;;;;;18.00;100.00;101046.41;5119214;27;45345;-73
2021/08/04 02:42:41;;;;;;;;;10.75;9.75;;;;;17.95;100.00;101032.53;5118691;27;46374;-73
2021/08/04 02:45:08;;;;;;;;;11.50;10.75;;;;;17.98;100.00;101037.69;5118713;27;45325;-73
2021/08/04 02:47:34;;;;;;;;;10.00;9.50;;;;;17.98;100.00;101042.09;5119132;27;45260;-72
2021/08/04 02:50:02;;;;;;;;;9.50;9.25;;;;;17.91;100.00;101033.56;5118974;27;45535;-72
2021/08/04 02:52:28;;;;;;;;;11.00;10.75;;;;;17.88;100.00;101030.16;5118791;27;45986;-73
2021/08/04 02:54:53;;;;;;;;;11.00;9.25;;;;;17.88;100.00;101030.16;5118571;27;45292;-73
2021/08/04 02:57:19;;;;;;;;;9.00;9.00;;;;;17.83;100.00;101038.28;5118633;27;45302;-73
2021/08/04 02:59:44;;;;;;;;;9.75;8.75;;;;;17.88;100.00;101046.03;5118874;27;45610;-73
2021/08/04 03:02:09;;;;;;;;;12.50;9.00;;;;;17.81;100.00;101042.78;5118354;27;46277;-73
2021/08/04 03:04:35;;;;;;;;;12.50;10.00;;;;;17.79;100.00;101041.97;5118599;27;45291;-73
2021/08/04 03:07:00;;;;;;;;;11.00;11.00;;;;;17.78;100.00;101036.75;5118709;27;45700;-73
2021/08/04 03:09:25;;;;;;;;;11.25;11.00;;;;;17.76;100.00;101042.09;5118629;27;45297;-73
2021/08/04 03:11:51;;;;;;;;;14.50;12.25;;;;;17.74;100.00;101043.94;5118558;27;45664;-73
2021/08/04 03:14:16;;;;;;;;;16.00;12.00;;;;;17.72;100.00;101036.09;5118715;27;45255;-73
2021/08/04 03:16:42;;;;;;;;;11.75;11.00;;;;;17.67;100.00;101032.75;5118846;27;45224;-73
2021/08/04 03:19:08;;;;;;;;;13.25;10.75;;;;;17.71;100.00;101038.78;5118640;27;45213;-73
2021/08/04 03:21:33;;;;;;;;;10.50;9.00;;;;;17.71;100.00;101044.94;5118277;27;47421;-73
2021/08/04 03:23:59;;;;;;;;;9.25;9.00;;;;;17.70;100.00;101037.91;5118340;27;45268;-73
2021/08/04 03:26:24;;;;;;;;;11.25;10.50;;;;;17.68;100.00;101039.75;5118439;27;45679;-73
2021/08/04 03:32:11;;;;;;;;;12.50;10.75;;;;;17.60;100.00;101025.94;5118168;27;45742;-73
2021/08/04 03:34:36;;;;;;;;;11.00;10.00;;;;;17.62;100.00;101023.25;5118163;27;45262;-73
2021/08/04 03:37:02;;;;;;;;;11.25;10.00;;;;;17.58;100.00;101013.72;5118317;27;45310;-73
2021/08/04 03:39:27;;;;;;;;;10.25;8.75;;;;;17.39;100.00;100982.75;5118333;27;45407;-72
2021/08/04 03:41:53;;;;;;;;;10.00;9.25;;;;;17.56;100.00;101010.28;5117983;27;46927;-73
2021/08/04 03:44:18;;;;;;;;;10.75;8.75;;;;;17.56;100.00;101019.06;5117928;27;45239;-71
2021/08/04 03:46:46;;;;;;;;;10.25;9.00;;;;;17.53;100.00;101013.06;5117886;27;45625;-74
2021/08/04 03:49:13;;;;;;;;;9.00;8.00;;;;;17.55;100.00;101019.13;5118240;27;45409;-73
2021/08/04 03:51:38;;;;;;;;;10.50;9.00;;;;;17.52;100.00;101021.91;5117790;27;46538;-73
2021/08/04 03:54:04;;;;;;;;;10.75;8.75;;;;;17.53;100.00;101028.88;5117931;27;45437;-72
2021/08/04 03:56:29;;;;;;;;;10.00;9.00;;;;;17.50;100.00;101032.50;5118218;27;45278;-73
2021/08/04 04:02:17;;;;;;;;;12.75;9.50;;;;;17.44;100.00;101030.13;5117583;27;45396;-72
2021/08/04 04:04:42;;;;;;;;;10.75;8.00;;;;;17.37;100.00;101021.53;5118225;27;45353;-73
2021/08/04 04:07:08;;;;;;;;;10.00;8.75;;;;;17.41;100.00;101024.94;5121680;27;45413;-72
2021/08/04 04:09:34;;;;;;;;;11.00;9.25;;;;;17.43;100.00;101039.81;5121556;27;45300;-72
2021/08/04 04:12:00;;;;;;;;;11.00;9.00;;;;;17.43;100.00;101039.81;5121489;27;45660;-72
2021/08/04 04:14:26;;;;;;;;;10.50;10.25;;;;;17.39;100.00;101032.91;5121179;27;45728;-73
2021/08/04 04:16:52;;;;;;;;;10.25;9.50;;;;;17.36;100.00;101033.03;5121634;27;45408;-73
2021/08/04 04:19:17;;;;;;;;;11.75;10.75;;;;;17.43;100.00;101046.88;5121347;27;45370;-73
2021/08/04 04:21:42;;;;;;;;;12.75;11.25;;;;;17.37;100.00;101036.53;5121319;27;45442;-73
2021/08/04 04:24:08;;;;;;;;;10.00;9.00;;;;;17.48;100.00;101049.34;5120899;27;45313;-73
2021/08/04 04:26:33;;;;;;;;;9.00;9.00;;;;;17.44;100.00;101032.75;5121142;27;45220;-73
2021/08/04 04:32:20;;;;;;;;;11.50;9.25;;;;;17.54;100.00;101030.59;5120896;27;45724;-73
2021/08/04 04:34:45;;;;;;;;;11.00;10.00;;;;;17.49;100.00;101016.72;5120932;27;45217;-73
2021/08/04 04:37:10;;;;;;;;;12.75;10.75;;;;;17.58;100.00;101025.16;5120972;27;45231;-73
2021/08/04 04:39:36;;;;;;;;;11.00;10.50;;;;;17.61;100.00;101021.53;5121418;27;45254;-72
2021/08/04 04:42:01;;;;;;;;;13.00;12.25;;;;;17.56;100.00;101020.84;5120712;27;47033;-72
2021/08/04 04:48:02;;;;;;;;;12.50;11.00;;;;;17.64;100.00;101022.25;5119299;27;45470;-74
2021/08/04 04:50:27;;;;;;;;;12.25;12.00;;;;;17.55;100.00;101005.94;5120950;27;45435;-73
2021/08/04 04:52:52;;;;;;;;;15.25;12.75;;;;;17.72;100.00;101029.94;5120469;27;46495;-74
2021/08/04 04:55:18;;;;;;;;;13.50;10.00;;;;;17.73;100.00;101019.31;5120865;27;45197;-74
2021/08/04 04:57:43;;;;;;;;;16.75;11.75;;;;;17.66;100.00;101012.53;5120839;27;45227;-71
2021/08/04 05:00:10;;;;;;;;;13.25;12.25;;;;;17.80;100.00;101021.69;5120751;27;45407;-71
2021/08/04 05:02:39;;;;;;;;;15.50;13.00;;;;;17.86;100.00;101030.22;5120411;27;47034;-72
2021/08/04 05:05:06;;;;;;;;;12.25;12.00;;;;;17.82;100.00;101015.44;5120366;27;45556;-72
2021/08/04 05:07:31;;;;;;;;;12.50;12.00;;;;;17.92;100.00;101029.16;5120679;27;45314;-72
2021/08/04 05:09:57;;;;;;;;;15.25;10.25;;;;;18.00;100.00;101041.13;5120857;27;45412;-71
2021/08/04 05:12:22;;;;;;;;;12.75;11.75;;;;;18.02;100.00;101041.91;5120212;27;46404;-72
2021/08/04 05:14:48;;;;;;;;;18.00;15.00;;;;;18.05;100.00;101033.88;5120612;27;45221;-72
2021/08/04 05:17:13;;;;;;;;;12.50;11.75;;;;;18.14;100.00;101051.16;5119116;27;45481;-73
2021/08/04 05:19:39;;;;;;;;;12.75;10.00;;;;;18.18;100.00;101054.53;5120386;27;45426;-73
2021/08/04 05:22:05;;;;;;;;;14.00;10.25;;;;;18.20;100.00;101050.88;5119989;27;47515;-74
2021/08/04 05:24:30;;;;;;;;;18.50;14.50;;;;;18.16;100.00;101036.09;5120133;27;45375;-72
2021/08/04 05:26:55;;;;;;;;;12.00;11.00;;;;;18.21;100.00;101028.81;5120368;27;45469;-71
2021/08/04 05:32:42;;;;;;;;;15.25;13.75;;;;;18.30;100.00;101038.13;5119821;27;45723;-73
2021/08/04 05:35:08;;;;;;;;;11.75;10.75;;;;;18.32;100.00;101042.44;5119802;27;45237;-72
2021/08/04 05:37:33;;;;;;;;;10.25;10.00;;;;;18.37;100.00;101044.91;5119855;27;45392;-72
2021/08/04 05:40:00;;;;;;;;;12.00;11.00;;;;;18.32;100.00;101033.66;5119926;27;45395;-71
2021/08/04 05:42:25;;;;;;;;;15.25;13.00;;;;;18.45;100.00;101047.22;5119487;27;46438;-72
2021/08/04 05:44:51;;;;;;;;;15.75;12.50;;;;;18.47;100.00;101040.09;5119278;27;45271;-73
2021/08/04 05:47:16;;;;;;;;;17.25;13.50;;;;;18.49;100.00;101035.59;5119579;27;45463;-72
2021/08/04 05:49:42;;;;;;;;;16.25;15.00;;;;;18.58;100.00;101041.38;5119872;27;45311;-70
2021/08/04 05:52:08;;;;;;;;;12.50;12.00;;;;;18.65;100.00;101034.06;5119412;27;46070;-69
2021/08/04 05:54:33;;;;;;;;;16.50;15.00;;;;;18.72;100.00;101054.03;5119858;27;45352;-69
2021/08/04 05:56:59;;;;;;;;;13.00;12.50;;;;;18.76;100.00;101045.03;5119912;27;45376;-68
2021/08/04 06:02:46;;;;;;;;;17.50;16.00;;;;;19.02;100.00;101049.19;5119162;27;45760;-68
2021/08/04 06:05:12;;;;;;;;;17.50;13.25;;;;;19.12;100.00;101055.78;5100953;27;45733;-68
2021/08/04 06:07:37;;;;;;;;;19.00;15.00;;;;;19.20;100.00;101052.78;5119431;27;45372;-69
2021/08/04 06:10:03;;;;;;;;;14.25;12.50;;;;;19.21;100.00;101041.25;5119365;27;45374;-69
2021/08/04 06:12:29;;;;;;;;;15.25;13.00;;;;;19.30;100.00;101048.81;5119409;27;46938;-70
2021/08/04 06:14:54;;;;;;;;;18.00;14.25;;;;;19.37;100.00;101057.31;5119132;27;45273;-70
2021/08/04 06:17:20;;;;;;;;;17.00;13.75;;;;;19.39;100.00;101050.16;5119211;27;45270;-70
2021/08/04 06:19:45;;;;;;;;;14.00;13.00;;;;;19.38;100.00;101036.06;5119562;27;45340;-69
2021/08/04 06:22:10;;;;;;;;;17.00;16.75;;;;;19.43;100.00;101038.50;5118591;27;47197;-71
2021/08/04 06:24:36;;;;;;;;;17.00;15.50;;;;;19.53;100.00;101042.47;5118819;27;45312;-69
2021/08/04 06:27:01;;;;;;;;;17.25;15.00;;;;;19.58;100.00;101041.34;5118957;27;45267;-68
2021/08/04 06:32:49;;;;;;;;;15.25;14.25;;;;;19.69;100.00;101035.56;5118822;27;45778;-68
2021/08/04 06:35:14;;;;;;;;;15.50;15.00;;;;;19.82;100.00;101041.09;5118882;27;45429;-68
2021/08/04 06:37:39;;;;;;;;;18.50;16.50;;;;;19.88;100.00;101040.81;5118931;27;45282;-68
2021/08/04 06:40:06;;;;;;;;;17.25;15.50;;;;;19.98;100.00;101058.00;5119179;27;45204;-67
2021/08/04 06:42:31;;;;;;;;;22.75;19.00;;;;;20.03;100.00;101039.22;5118593;27;47493;-65
2021/08/04 06:48:18;;;;;;;;;14.25;14.00;;;;;20.18;100.00;101034.03;5117982;27;45547;-67
2021/08/04 06:50:44;;;;;;;;;15.25;15.25;;;;;20.32;100.00;101035.13;5118778;27;45453;-67
2021/08/04 06:53:10;;;;;;;;;17.00;16.00;;;;;20.38;100.00;101043.66;5118554;27;46329;-66
2021/08/04 06:55:36;;;;;;;;;18.00;14.25;;;;;20.44;100.00;101034.56;5118550;27;45297;-67
2021/08/04 06:58:01;;;;;;;;;17.25;15.00;;;;;20.49;100.00;101038.69;5118659;27;45286;-68
2021/08/04 07:00:27;;;;;;;;;16.25;14.00;;;;;20.58;100.00;101041.78;5119066;27;45329;-67
2021/08/04 07:02:52;;;;;;;;;15.25;12.50;;;;;20.53;100.00;101020.81;5118635;27;45472;-66
2021/08/04 07:05:18;;;;;;;;;17.00;15.25;;;;;20.79;100.00;101051.31;5118519;27;45274;-67
2021/08/04 07:07:45;;;;;;;;;15.00;15.00;;;;;20.91;100.00;101052.47;5118780;27;45308;-67
2021/08/04 07:10:12;;;;;;;;;19.25;18.00;;;;;20.94;100.00;101034.59;5118658;27;45553;-67
2021/08/04 07:12:38;;;;;;;;;17.00;16.50;;;;;21.10;100.00;101050.56;5118680;27;46487;-67
2021/08/04 07:18:26;;;;;;;;;18.50;17.00;;;;;21.34;100.00;101046.63;5118495;27;45366;-67
2021/08/04 07:20:52;;;;;;;;;22.25;20.00;;;;;21.38;100.00;101045.53;5118716;27;45389;-69
2021/08/04 07:23:17;;;;;;;;;15.00;14.50;;;;;21.47;100.00;101059.25;5118096;27;46518;-67
2021/08/04 07:25:43;;;;;;;;;23.75;14.75;;;;;21.50;100.00;101057.31;5118038;27;45356;-68
2021/08/04 07:28:08;;;;;;;;;16.50;15.25;;;;;21.53;100.00;101046.50;5118241;27;45417;-66
2021/08/04 07:30:34;;;;;;;;;17.50;15.25;;;;;21.64;100.00;101046.75;5118665;27;45383;-66
2021/08/04 07:33:00;;;;;;;;;19.50;18.75;;;;;21.76;100.00;101049.69;5118124;27;46452;-66
2021/08/04 07:35:25;;;;;;;;;17.00;15.25;;;;;21.84;100.00;101050.09;5099919;27;45387;-69
2021/08/04 07:37:51;;;;;;;;;19.00;16.00;;;;;21.87;100.00;101042.81;5118300;27;45282;-67
2021/08/04 07:40:18;;;;;;;;;16.25;15.75;;;;;21.96;100.00;101044.97;5119513;27;45294;-67
2021/08/04 07:42:44;;;;;;;;;15.25;14.50;;;;;22.11;100.00;101056.53;5102930;27;46439;-79
2021/08/04 07:48:34;;;;;;;;;17.25;16.00;;;;;22.45;100.00;101046.63;5120712;27;45283;-67
2021/08/04 07:51:01;;;;;;;;;16.75;14.75;;;;;22.60;100.00;101051.00;5121555;27;45488;-66
2021/08/04 07:53:27;;;;;;;;;17.25;14.75;;;;;22.65;100.00;101046.31;5121208;27;46846;-67
2021/08/04 07:55:52;;;;;;;;;17.25;15.75;;;;;22.75;100.00;101047.44;5121384;27;45365;-67
2021/08/04 07:58:18;;;;;;;;;17.75;15.00;;;;;22.82;100.00;101046.16;5121317;27;45283;-67
2021/08/04 08:00:43;;;;;;;;;20.00;15.25;;;;;22.94;100.00;101051.69;5121594;27;45337;-67
2021/08/04 08:03:08;;;;;;;;;18.00;17.50;;;;;23.02;100.00;101049.41;5120938;27;47221;-68
2021/08/04 08:05:34;;;;;;;;;15.00;14.00;;;;;23.04;100.00;101052.84;5121181;27;45324;-65
2021/08/04 08:08:05;;;;;;;;;15.75;14.50;;;;;22.99;100.00;101044.28;5121382;27;45321;-67
2021/08/04 08:10:32;;;;;;;;;16.50;14.75;;;;;22.96;100.00;101055.13;5121392;27;45355;-67
2021/08/04 08:12:58;;;;;;;;;15.50;14.50;;;;;22.74;100.00;101031.56;5121124;27;46599;-67
2021/08/04 08:18:45;;;;;;;;;16.50;14.75;;;;;22.62;100.00;101047.31;5121171;27;45369;-67
2021/08/04 08:21:11;;;;;;;;;13.25;12.50;;;;;22.62;100.00;101046.47;5121625;27;45338;-68
2021/08/04 08:23:36;;;;;;;;;13.50;12.25;;;;;22.67;100.00;101043.53;5120871;27;47159;-68
2021/08/04 08:26:02;;;;;;;;;12.50;12.25;;;;;22.74;100.00;101040.41;5120931;27;45377;-67
2021/08/04 08:28:27;;;;;;;;;14.25;14.25;;;;;22.76;100.00;101032.34;5121053;27;45603;-68
2021/08/04 08:30:53;;;;;;;;;16.50;14.50;;;;;22.82;100.00;101032.84;5121039;27;45332;-67
2021/08/04 08:33:18;;;;;;;;;12.00;11.50;;;;;22.85;100.00;101031.78;5120656;27;47352;-67
2021/08/04 08:35:44;;;;;;;;;15.00;12.00;;;;;22.95;100.00;101042.75;5120969;27;45443;-68
2021/08/04 08:38:09;;;;;;;;;12.00;11.75;;;;;22.94;100.00;101033.06;5120883;27;45342;-67
2021/08/04 08:40:35;;;;;;;;;8.25;7.75;;;;;23.11;100.00;101044.41;5121301;27;45380;-67
2021/08/04 08:43:00;;;;;;;;;8.75;8.00;;;;;23.36;100.00;101042.88;5120694;27;45538;-66
2021/08/04 08:48:49;;;;;;;;;5.25;5.25;;;;;23.83;100.00;101035.41;5120102;27;45384;-75
2021/08/04 08:51:19;;;;;;;;;7.25;6.75;;;;;23.92;100.00;101031.25;5120654;27;45573;-68
2021/08/04 08:53:46;;;;;;;;;6.50;6.00;;;;;23.93;100.00;101021.44;5120302;27;46613;-67
2021/08/04 08:56:17;;;;;;;;;8.50;8.00;;;;;24.10;100.00;101039.88;5102137;27;45397;-67
2021/08/04 08:58:47;;;;;;;;;8.75;8.00;;;;;24.18;100.00;101032.22;5120662;27;45248;-68
2021/08/04 09:01:13;;;;;;;;;9.50;9.25;;;;;24.24;100.00;101038.97;5120928;27;45311;-69
2021/08/04 09:03:38;;;;;;;;;7.50;6.75;;;;;24.25;100.00;101038.00;5120177;27;46948;-68
2021/08/04 09:06:05;;;;;;;;;5.00;4.75;;;;;24.25;100.00;101036.19;5120289;27;45407;-67
2021/08/04 09:08:32;;;;;;;;;6.00;5.00;;;;;24.46;100.00;101031.28;5120490;27;45367;-67
2021/08/04 09:11:09;;;;;;;;;6.25;6.25;;;;;24.68;100.00;101033.34;5120359;27;45316;-67
2021/08/04 09:13:36;;;;;;;;;8.75;8.75;;;;;25.01;100.00;101038.19;5120093;27;47557;-67
2021/08/04 09:16:15;;;;;;;;;8.00;7.75;;;;;25.36;100.00;101037.53;5119953;27;45573;-73
2021/08/04 09:18:52;;;;;;;;;8.00;7.50;;;;;25.74;100.00;101042.78;5120598;27;45309;-67
2021/08/04 09:21:19;;;;;;;;;6.75;6.50;;;;;25.92;100.00;101030.75;5120239;27;45299;-67
2021/08/04 09:23:53;;;;;;;;;9.50;7.50;;;;;26.10;100.00;101023.19;5119789;27;46487;-67
2021/08/04 09:26:23;;;;;;;;;7.25;6.00;;;;;26.34;100.00;101041.91;5120189;27;45389;-68
2021/08/04 09:29:01;;;;;;;;;10.50;9.25;;;;;26.40;100.00;101034.28;5120325;27;45490;-68
2021/08/04 09:31:51;;;;;;;;;6.25;5.50;;;;;26.51;100.00;101028.97;5120173;27;45349;-67
2021/08/04 09:34:27;;;;;;;;;7.75;7.25;;;;;26.65;100.00;101027.06;5119862;27;46290;-67
2021/08/04 09:36:59;;;;;;;;;7.75;6.00;;;;;26.71;100.00;101016.75;5119692;27;45541;-67
2021/08/04 09:39:24;;;;;;;;;5.50;5.50;;;;;26.66;100.00;101015.38;5119791;27;45320;-67
2021/08/04 09:41:49;;;;;;;;;8.00;6.00;;;;;26.65;100.00;100994.91;5119853;27;45148;-66
2021/08/04 09:44:15;;;;;;;;;5.50;5.50;;;;;26.85;100.00;101007.59;5119800;27;46331;-66
2021/08/04 09:46:40;;;;;;;;;6.00;5.75;;;;;27.14;100.00;101013.38;5119525;27;45427;-66
2021/08/04 09:49:13;;;;;;;;;5.75;5.00;;;;;27.35;100.00;100990.22;5119571;27;45434;-67
2021/08/04 09:51:38;;;;;;;;;8.75;7.00;;;;;27.41;100.00;100996.94;5119851;27;45223;-69
2021/08/04 09:54:08;;;;;;;;;6.50;6.00;;;;;27.11;98.72;100986.81;5119355;27;45709;-67
2021/08/04 09:56:47;;;;;;;;;7.25;5.25;;;;;26.74;100.00;100997.75;5119479;27;45479;-67
2021/08/04 09:59:13;;;;;;;;;6.75;6.50;;;;;26.43;100.00;100990.34;5119790;27;45165;-67
2021/08/04 10:01:40;;;;;;;;;6.25;6.25;;;;;26.15;99.61;100991.56;5119783;27;45474;-66
2021/08/04 10:04:08;;;;;;;;;7.00;6.25;;;;;25.95;100.00;100993.06;5118724;27;45452;-66
2021/08/04 10:06:35;;;;;;;;;6.00;6.00;;;;;25.97;100.00;100993.78;5119735;27;45561;-68
2021/08/04 10:09:02;;;;;;;;;7.00;6.50;;;;;26.08;100.00;100993.00;5119616;27;45295;-67
2021/08/04 10:11:28;;;;;;;;;7.50;6.00;;;;;26.39;100.00;100994.25;5119576;27;45281;-67
2021/08/04 10:13:56;;;;;;;;;7.50;6.00;;;;;26.86;100.00;100999.44;5119070;27;46110;-67
2021/08/04 10:16:24;;;;;;;;;6.00;5.00;;;;;27.08;100.00;100979.03;5119261;27;45316;-67
2021/08/04 10:18:51;;;;;;;;;7.00;6.00;;;;;27.46;100.00;100984.00;5119205;27;45347;-67
2021/08/04 10:21:19;;;;;;;;;6.00;6.00;;;;;27.92;100.00;100989.16;5119477;27;45282;-67
2021/08/04 10:23:48;;;;;;;;;4.00;4.00;;;;;27.90;94.58;100974.16;5119038;27;46506;-67
2021/08/04 10:26:15;;;;;;;;;6.00;6.00;;;;;27.68;96.63;100980.44;5119381;27;45521;-66
2021/08/04 10:28:42;;;;;;;;;6.75;6.25;;;;;27.31;95.13;100979.84;5119460;27;45294;-66
2021/08/04 10:31:09;;;;;;;;;5.75;5.00;;;;;27.00;94.30;100981.47;5119435;27;45303;-68
2021/08/04 10:33:35;;;;;;;;;5.25;4.75;;;;;26.68;97.25;100974.09;5118920;27;46785;-67
2021/08/04 10:36:08;;;;;;;;;6.00;6.00;;;;;26.51;96.48;100986.13;5119094;27;45284;-67
2021/08/04 10:38:39;;;;;;;;;5.25;5.00;;;;;26.35;97.42;100972.19;5119063;27;45302;-66
2021/08/04 10:41:13;;;;;;;;;5.00;5.00;;;;;26.34;99.93;100978.53;5119150;27;45327;-67
2021/08/04 10:50:10;;;;;;;;;6.00;5.75;;;;;26.11;100.00;100982.91;5118218;27;45505;-67
2021/08/04 10:52:58;;;;;;;;;4.25;4.00;;;;;25.85;100.00;100984.03;5119177;27;45252;-66
2021/08/04 10:55:25;;;;;;;;;7.25;7.00;;;;;25.64;100.00;100979.25;5118588;27;47179;-67
2021/08/04 10:58:10;;;;;;;;;5.75;5.75;;;;;25.54;100.00;100988.03;5118854;27;45670;-68
2021/08/04 11:03:57;;;;;;;;;7.25;6.75;;;;;25.17;100.00;100985.38;5118659;27;45448;-67
2021/08/04 11:06:22;;;;;;;;;7.50;6.75;;;;;25.01;100.00;100990.94;5118321;27;46409;-68
2021/08/04 11:08:47;;;;;;;;;6.00;6.00;;;;;24.85;100.00;100986.75;5118395;27;45265;-67
2021/08/04 11:11:52;;;;;;;;;8.25;7.75;;;;;24.65;100.00;100986.31;5118443;27;45213;-71
2021/08/04 11:14:41;;;;;;;;;7.25;7.25;;;;;24.42;100.00;100987.03;5117619;27;45584;-66
2021/08/04 11:17:09;;;;;;;;;7.25;7.25;;;;;24.25;100.00;100982.84;5054796;28;46922;-66
2021/08/04 11:20:09;;;;;;;;;8.50;8.25;;;;;24.19;100.00;100985.03;5054913;28;45394;-68
2021/08/04 11:22:35;;;;;;;;;21.50;20.50;;;;;24.13;100.00;100987.16;5054868;28;45402;-66
2021/08/04 11:25:05;;;;;;;;;6.75;6.25;;;;;24.10;100.00;100984.69;5055005;28;45491;-74
2021/08/04 11:27:35;;;;;;;;;13.75;13.50;;;;;24.11;100.00;100986.41;5054527;28;46244;-67
2021/08/04 11:30:02;;;;;;;;;9.50;8.50;;;;;24.05;100.00;100978.81;5054613;28;45580;-67
2021/08/04 11:32:29;;;;;;;;;6.75;6.75;;;;;24.09;100.00;100977.66;5054760;28;45460;-66
2021/08/04 11:34:56;;;;;;;;;8.75;8.00;;;;;24.16;100.00;100983.44;5055000;28;45423;-68
2021/08/04 11:37:23;;;;;;;;;7.00;7.00;;;;;24.17;100.00;100981.63;5054730;28;45538;-67
2021/08/04 11:40:02;;;;;;;;;8.00;8.00;;;;;24.02;100.00;100973.69;5054600;28;45535;-68
2021/08/04 11:42:29;;;;;;;;;7.50;7.00;;;;;23.96;100.00;100974.09;5054887;28;45509;-67
2021/08/04 11:45:06;;;;;;;;;7.00;7.00;;;;;23.90;100.00;100982.50;5054600;28;45481;-67
2021/08/04 11:47:31;;;;;;;;;6.75;5.25;;;;;23.77;100.00;100973.63;5054295;28;46516;-67
2021/08/04 11:50:04;;;;;;;;;8.00;7.00;;;;;23.70;100.00;100978.47;5054186;28;45315;-67
2021/08/04 11:52:31;;;;;;;;;9.50;8.00;;;;;23.60;100.00;100973.84;5054504;28;45405;-67
2021/08/04 11:54:59;;;;;;;;;8.25;8.25;;;;;23.53;100.00;100976.00;5107853;27;45690;-67
2021/08/04 11:57:24;;;;;;;;;6.25;6.25;;;;;23.43;100.00;100973.09;5117733;27;47516;-68
2021/08/04 11:59:51;;;;;;;;;6.75;6.00;;;;;23.36;100.00;100976.25;5117756;27;45304;-67
2021/08/04 12:02:20;;;;;;;;;7.00;7.00;;;;;23.31;100.00;100981.88;5117920;27;45410;-67
2021/08/04 12:04:56;;;;;;;;;6.00;6.00;;;;;23.13;100.00;100965.25;5117905;27;45437;-67
2021/08/04 12:07:27;;;;;;;;;8.00;7.25;;;;;23.10;100.00;100965.44;5117910;27;46664;-68
2021/08/04 12:10:14;;;;;;;;;8.00;7.00;;;;;23.03;100.00;100965.91;5117868;27;45314;-77
2021/08/04 12:12:44;;;;;;;;;8.50;7.00;;;;;22.95;100.00;100963.72;5117988;27;45351;-67